sensor_id;sensor_type;location;lat;lon;timestamp;P1;durP1;ratioP1;P2;durP2;ratioP2
20725;SDS011;10524;48.132;8.518;2023-09-19T00:01:39;2.25;;;1.50;;
20725;SDS011;10524;48.132;8.518;2023-09-19T00:04:07;2.97;;;1.80;;
20725;SDS011;10524;48.132;8.518;2023-09-19T00:06:35;3.78;;;1.70;;
20725;SDS011;10524;48.132;8.518;2023-09-19T00:09:04;2.65;;;1.75;;
20725;SDS011;10524;48.132;8.518;2023-09-19T00:11:31;2.88;;;1.85;;
20725;SDS011;10524;48.132;8.518;2023-09-19T00:13:57;2.67;;;1.52;;
20725;SDS011;10524;48.132;8.518;2023-09-19T00:16:25;4.60;;;1.80;;
20725;SDS011;10524;48.132;8.518;2023-09-19T00:18:52;3.08;;;1.80;;
20725;SDS011;10524;48.132;8.518;2023-09-19T00:21:18;2.40;;;1.90;;
20725;SDS011;10524;48.132;8.518;2023-09-19T00:23:47;3.10;;;1.80;;
20725;SDS011;10524;48.132;8.518;2023-09-19T00:26:13;2.28;;;2.00;;
20725;SDS011;10524;48.132;8.518;2023-09-19T00:28:43;3.50;;;1.98;;
20725;SDS011;10524;48.132;8.518;2023-09-19T00:31:09;2.42;;;2.00;;
20725;SDS011;10524;48.132;8.518;2023-09-19T00:33:35;3.85;;;2.20;;
20725;SDS011;10524;48.132;8.518;2023-09-19T00:36:01;3.03;;;2.00;;
20725;SDS011;10524;48.132;8.518;2023-09-19T00:38:30;3.75;;;2.15;;
20725;SDS011;10524;48.132;8.518;2023-09-19T00:40:57;3.85;;;2.28;;
20725;SDS011;10524;48.132;8.518;2023-09-19T00:43:24;7.03;;;2.90;;
20725;SDS011;10524;48.132;8.518;2023-09-19T00:45:52;4.32;;;2.53;;
20725;SDS011;10524;48.132;8.518;2023-09-19T00:48:20;5.95;;;2.47;;
20725;SDS011;10524;48.132;8.518;2023-09-19T00:50:47;5.97;;;2.65;;
20725;SDS011;10524;48.132;8.518;2023-09-19T00:53:15;4.25;;;2.30;;
20725;SDS011;10524;48.132;8.518;2023-09-19T00:55:44;4.30;;;2.30;;
20725;SDS011;10524;48.132;8.518;2023-09-19T00:58:10;3.92;;;2.47;;
20725;SDS011;10524;48.132;8.518;2023-09-19T01:00:37;3.47;;;2.38;;
20725;SDS011;10524;48.132;8.518;2023-09-19T01:03:04;3.83;;;2.15;;
20725;SDS011;10524;48.132;8.518;2023-09-19T01:05:33;3.15;;;2.22;;
20725;SDS011;10524;48.132;8.518;2023-09-19T01:07:59;3.25;;;2.13;;
20725;SDS011;10524;48.132;8.518;2023-09-19T01:10:26;3.13;;;2.20;;
20725;SDS011;10524;48.132;8.518;2023-09-19T01:15:57;2.30;;;2.03;;
20725;SDS011;10524;48.132;8.518;2023-09-19T01:29:37;4.13;;;2.15;;
20725;SDS011;10524;48.132;8.518;2023-09-19T01:32:06;5.03;;;2.33;;
20725;SDS011;10524;48.132;8.518;2023-09-19T01:34:51;4.40;;;2.20;;
20725;SDS011;10524;48.132;8.518;2023-09-19T01:37:18;5.18;;;2.70;;
20725;SDS011;10524;48.132;8.518;2023-09-19T01:39:50;2.70;;;2.00;;
20725;SDS011;10524;48.132;8.518;2023-09-19T01:44:51;3.58;;;2.25;;
20725;SDS011;10524;48.132;8.518;2023-09-19T01:52:56;3.75;;;2.30;;
20725;SDS011;10524;48.132;8.518;2023-09-19T01:55:29;3.80;;;2.40;;
20725;SDS011;10524;48.132;8.518;2023-09-19T01:58:06;4.57;;;2.20;;
20725;SDS011;10524;48.132;8.518;2023-09-19T02:00:40;5.60;;;2.10;;
20725;SDS011;10524;48.132;8.518;2023-09-19T02:03:08;3.63;;;2.08;;
20725;SDS011;10524;48.132;8.518;2023-09-19T02:05:35;3.25;;;1.88;;
20725;SDS011;10524;48.132;8.518;2023-09-19T02:08:01;3.95;;;1.90;;
20725;SDS011;10524;48.132;8.518;2023-09-19T02:10:26;1.50;;;1.40;;
20725;SDS011;10524;48.132;8.518;2023-09-19T02:12:52;3.42;;;1.75;;
20725;SDS011;10524;48.132;8.518;2023-09-19T02:15:19;2.65;;;1.60;;
20725;SDS011;10524;48.132;8.518;2023-09-19T02:17:47;2.85;;;1.88;;
20725;SDS011;10524;48.132;8.518;2023-09-19T02:20:13;2.67;;;1.38;;
20725;SDS011;10524;48.132;8.518;2023-09-19T02:22:43;3.13;;;1.70;;
20725;SDS011;10524;48.132;8.518;2023-09-19T02:25:09;1.98;;;1.48;;
20725;SDS011;10524;48.132;8.518;2023-09-19T02:27:36;3.22;;;1.50;;
20725;SDS011;10524;48.132;8.518;2023-09-19T02:30:02;2.53;;;1.60;;
20725;SDS011;10524;48.132;8.518;2023-09-19T02:32:31;1.60;;;1.50;;
20725;SDS011;10524;48.132;8.518;2023-09-19T02:35:00;2.67;;;1.80;;
20725;SDS011;10524;48.132;8.518;2023-09-19T02:37:29;3.95;;;1.58;;
20725;SDS011;10524;48.132;8.518;2023-09-19T02:39:54;2.28;;;1.50;;
20725;SDS011;10524;48.132;8.518;2023-09-19T02:42:21;2.05;;;1.60;;
20725;SDS011;10524;48.132;8.518;2023-09-19T02:44:47;3.10;;;2.00;;
20725;SDS011;10524;48.132;8.518;2023-09-19T02:47:13;3.53;;;1.88;;
20725;SDS011;10524;48.132;8.518;2023-09-19T02:49:40;2.90;;;1.85;;
20725;SDS011;10524;48.132;8.518;2023-09-19T02:52:09;3.45;;;2.00;;
20725;SDS011;10524;48.132;8.518;2023-09-19T02:54:37;3.13;;;1.80;;
20725;SDS011;10524;48.132;8.518;2023-09-19T02:57:03;2.00;;;1.65;;
20725;SDS011;10524;48.132;8.518;2023-09-19T02:59:31;3.35;;;1.80;;
20725;SDS011;10524;48.132;8.518;2023-09-19T03:01:57;3.97;;;2.05;;
20725;SDS011;10524;48.132;8.518;2023-09-19T03:04:24;2.47;;;1.88;;
20725;SDS011;10524;48.132;8.518;2023-09-19T03:06:52;3.97;;;2.00;;
20725;SDS011;10524;48.132;8.518;2023-09-19T03:09:22;2.70;;;1.92;;
20725;SDS011;10524;48.132;8.518;2023-09-19T03:11:48;4.13;;;2.40;;
20725;SDS011;10524;48.132;8.518;2023-09-19T03:14:15;4.15;;;1.73;;
20725;SDS011;10524;48.132;8.518;2023-09-19T03:16:41;3.53;;;1.92;;
20725;SDS011;10524;48.132;8.518;2023-09-19T03:19:08;3.95;;;1.80;;
20725;SDS011;10524;48.132;8.518;2023-09-19T03:21:36;3.15;;;1.90;;
20725;SDS011;10524;48.132;8.518;2023-09-19T03:24:03;3.22;;;2.10;;
20725;SDS011;10524;48.132;8.518;2023-09-19T03:26:29;4.65;;;1.98;;
20725;SDS011;10524;48.132;8.518;2023-09-19T03:28:56;3.28;;;2.00;;
20725;SDS011;10524;48.132;8.518;2023-09-19T03:31:21;2.67;;;1.92;;
20725;SDS011;10524;48.132;8.518;2023-09-19T03:33:47;3.03;;;1.50;;
20725;SDS011;10524;48.132;8.518;2023-09-19T03:36:13;2.88;;;1.73;;
20725;SDS011;10524;48.132;8.518;2023-09-19T03:38:39;2.30;;;1.75;;
20725;SDS011;10524;48.132;8.518;2023-09-19T03:41:05;3.33;;;1.90;;
20725;SDS011;10524;48.132;8.518;2023-09-19T03:43:34;2.10;;;1.70;;
20725;SDS011;10524;48.132;8.518;2023-09-19T03:46:03;3.08;;;1.50;;
20725;SDS011;10524;48.132;8.518;2023-09-19T03:48:33;2.83;;;1.70;;
20725;SDS011;10524;48.132;8.518;2023-09-19T03:51:00;2.75;;;1.80;;
20725;SDS011;10524;48.132;8.518;2023-09-19T03:53:26;3.13;;;1.50;;
20725;SDS011;10524;48.132;8.518;2023-09-19T03:55:51;3.03;;;1.63;;
20725;SDS011;10524;48.132;8.518;2023-09-19T03:58:18;3.67;;;1.80;;
20725;SDS011;10524;48.132;8.518;2023-09-19T04:00:44;2.03;;;1.60;;
20725;SDS011;10524;48.132;8.518;2023-09-19T04:03:10;2.88;;;1.80;;
20725;SDS011;10524;48.132;8.518;2023-09-19T04:05:45;3.05;;;1.50;;
20725;SDS011;10524;48.132;8.518;2023-09-19T04:08:11;4.18;;;1.95;;
20725;SDS011;10524;48.132;8.518;2023-09-19T04:10:37;2.25;;;1.48;;
20725;SDS011;10524;48.132;8.518;2023-09-19T04:13:03;4.00;;;1.42;;
20725;SDS011;10524;48.132;8.518;2023-09-19T04:15:30;2.88;;;1.42;;
20725;SDS011;10524;48.132;8.518;2023-09-19T04:17:55;3.63;;;1.40;;
20725;SDS011;10524;48.132;8.518;2023-09-19T04:20:21;1.85;;;1.38;;
20725;SDS011;10524;48.132;8.518;2023-09-19T04:22:48;3.47;;;1.50;;
20725;SDS011;10524;48.132;8.518;2023-09-19T04:25:14;1.85;;;1.40;;
20725;SDS011;10524;48.132;8.518;2023-09-19T04:27:40;1.45;;;1.08;;
20725;SDS011;10524;48.132;8.518;2023-09-19T04:30:09;1.60;;;1.10;;
20725;SDS011;10524;48.132;8.518;2023-09-19T04:32:37;2.10;;;1.10;;
20725;SDS011;10524;48.132;8.518;2023-09-19T04:35:09;1.73;;;1.00;;
20725;SDS011;10524;48.132;8.518;2023-09-19T04:37:39;1.30;;;1.00;;
20725;SDS011;10524;48.132;8.518;2023-09-19T04:40:07;2.47;;;1.13;;
20725;SDS011;10524;48.132;8.518;2023-09-19T04:42:42;2.38;;;1.20;;
20725;SDS011;10524;48.132;8.518;2023-09-19T04:45:09;1.58;;;1.20;;
20725;SDS011;10524;48.132;8.518;2023-09-19T04:47:36;1.95;;;1.15;;
20725;SDS011;10524;48.132;8.518;2023-09-19T04:50:10;2.75;;;1.20;;
20725;SDS011;10524;48.132;8.518;2023-09-19T04:52:38;1.40;;;1.30;;
20725;SDS011;10524;48.132;8.518;2023-09-19T04:55:05;1.63;;;1.23;;
20725;SDS011;10524;48.132;8.518;2023-09-19T04:57:31;2.42;;;1.20;;
20725;SDS011;10524;48.132;8.518;2023-09-19T04:59:57;1.60;;;1.10;;
20725;SDS011;10524;48.132;8.518;2023-09-19T05:02:22;4.10;;;1.30;;
20725;SDS011;10524;48.132;8.518;2023-09-19T05:04:48;1.48;;;1.30;;
20725;SDS011;10524;48.132;8.518;2023-09-19T05:07:14;3.42;;;1.40;;
20725;SDS011;10524;48.132;8.518;2023-09-19T05:09:40;1.33;;;1.23;;
20725;SDS011;10524;48.132;8.518;2023-09-19T05:12:07;1.77;;;1.20;;
20725;SDS011;10524;48.132;8.518;2023-09-19T05:14:35;1.60;;;1.40;;
20725;SDS011;10524;48.132;8.518;2023-09-19T05:17:01;1.90;;;1.50;;
20725;SDS011;10524;48.132;8.518;2023-09-19T05:19:29;2.45;;;1.30;;
20725;SDS011;10524;48.132;8.518;2023-09-19T05:21:54;3.13;;;1.58;;
20725;SDS011;10524;48.132;8.518;2023-09-19T05:24:20;1.90;;;1.70;;
20725;SDS011;10524;48.132;8.518;2023-09-19T05:26:48;3.28;;;1.63;;
20725;SDS011;10524;48.132;8.518;2023-09-19T05:29:14;1.60;;;1.50;;
20725;SDS011;10524;48.132;8.518;2023-09-19T05:31:39;2.88;;;1.25;;
20725;SDS011;10524;48.132;8.518;2023-09-19T05:34:07;1.95;;;1.20;;
20725;SDS011;10524;48.132;8.518;2023-09-19T05:36:34;3.70;;;1.20;;
20725;SDS011;10524;48.132;8.518;2023-09-19T05:39:00;2.78;;;1.30;;
20725;SDS011;10524;48.132;8.518;2023-09-19T05:41:26;1.08;;;0.98;;
20725;SDS011;10524;48.132;8.518;2023-09-19T05:43:52;1.98;;;1.02;;
20725;SDS011;10524;48.132;8.518;2023-09-19T05:46:18;2.78;;;1.50;;
20725;SDS011;10524;48.132;8.518;2023-09-19T05:48:44;3.40;;;0.98;;
20725;SDS011;10524;48.132;8.518;2023-09-19T05:51:09;4.10;;;1.00;;
20725;SDS011;10524;48.132;8.518;2023-09-19T05:53:35;1.15;;;0.90;;
20725;SDS011;10524;48.132;8.518;2023-09-19T05:56:01;1.65;;;0.90;;
20725;SDS011;10524;48.132;8.518;2023-09-19T05:58:27;2.08;;;1.02;;
20725;SDS011;10524;48.132;8.518;2023-09-19T06:00:52;2.67;;;1.05;;
20725;SDS011;10524;48.132;8.518;2023-09-19T06:03:18;1.23;;;1.00;;
20725;SDS011;10524;48.132;8.518;2023-09-19T06:05:45;2.10;;;1.00;;
20725;SDS011;10524;48.132;8.518;2023-09-19T06:08:14;2.65;;;1.00;;
20725;SDS011;10524;48.132;8.518;2023-09-19T06:10:40;2.10;;;1.10;;
20725;SDS011;10524;48.132;8.518;2023-09-19T06:13:07;1.45;;;1.02;;
20725;SDS011;10524;48.132;8.518;2023-09-19T06:15:35;1.00;;;0.73;;
20725;SDS011;10524;48.132;8.518;2023-09-19T06:18:01;2.65;;;1.00;;
20725;SDS011;10524;48.132;8.518;2023-09-19T06:20:30;1.40;;;1.00;;
20725;SDS011;10524;48.132;8.518;2023-09-19T06:22:56;2.75;;;1.00;;
20725;SDS011;10524;48.132;8.518;2023-09-19T06:25:22;1.75;;;1.00;;
20725;SDS011;10524;48.132;8.518;2023-09-19T06:27:48;2.28;;;1.08;;
20725;SDS011;10524;48.132;8.518;2023-09-19T06:30:17;1.40;;;0.90;;
20725;SDS011;10524;48.132;8.518;2023-09-19T06:32:43;1.90;;;1.25;;
20725;SDS011;10524;48.132;8.518;2023-09-19T06:35:10;2.13;;;0.88;;
20725;SDS011;10524;48.132;8.518;2023-09-19T06:37:37;1.83;;;1.00;;
20725;SDS011;10524;48.132;8.518;2023-09-19T06:40:12;1.85;;;1.00;;
20725;SDS011;10524;48.132;8.518;2023-09-19T06:42:39;2.38;;;1.02;;
20725;SDS011;10524;48.132;8.518;2023-09-19T06:45:07;1.65;;;1.30;;
20725;SDS011;10524;48.132;8.518;2023-09-19T06:47:33;2.13;;;1.10;;
20725;SDS011;10524;48.132;8.518;2023-09-19T06:49:59;2.45;;;1.10;;
20725;SDS011;10524;48.132;8.518;2023-09-19T06:52:27;3.67;;;1.30;;
20725;SDS011;10524;48.132;8.518;2023-09-19T06:54:53;2.22;;;1.00;;
20725;SDS011;10524;48.132;8.518;2023-09-19T06:57:19;1.70;;;1.10;;
20725;SDS011;10524;48.132;8.518;2023-09-19T06:59:45;1.50;;;0.95;;
20725;SDS011;10524;48.132;8.518;2023-09-19T07:02:11;1.95;;;1.08;;
20725;SDS011;10524;48.132;8.518;2023-09-19T07:04:39;1.90;;;1.10;;
20725;SDS011;10524;48.132;8.518;2023-09-19T07:07:05;1.60;;;1.02;;
20725;SDS011;10524;48.132;8.518;2023-09-19T07:09:34;1.58;;;0.90;;
20725;SDS011;10524;48.132;8.518;2023-09-19T07:12:02;1.48;;;0.90;;
20725;SDS011;10524;48.132;8.518;2023-09-19T07:14:28;2.22;;;1.20;;
20725;SDS011;10524;48.132;8.518;2023-09-19T07:16:55;1.65;;;0.90;;
20725;SDS011;10524;48.132;8.518;2023-09-19T07:19:21;1.20;;;0.90;;
20725;SDS011;10524;48.132;8.518;2023-09-19T07:21:48;1.85;;;0.90;;
20725;SDS011;10524;48.132;8.518;2023-09-19T07:24:15;2.38;;;1.70;;
20725;SDS011;10524;48.132;8.518;2023-09-19T07:26:41;1.67;;;1.00;;
20725;SDS011;10524;48.132;8.518;2023-09-19T07:29:07;3.47;;;1.45;;
20725;SDS011;10524;48.132;8.518;2023-09-19T07:31:34;1.42;;;0.98;;
20725;SDS011;10524;48.132;8.518;2023-09-19T07:33:59;2.72;;;1.00;;
20725;SDS011;10524;48.132;8.518;2023-09-19T07:36:25;3.20;;;1.20;;
20725;SDS011;10524;48.132;8.518;2023-09-19T07:38:51;2.65;;;0.90;;
20725;SDS011;10524;48.132;8.518;2023-09-19T07:41:17;1.08;;;0.80;;
20725;SDS011;10524;48.132;8.518;2023-09-19T07:43:42;1.73;;;0.90;;
20725;SDS011;10524;48.132;8.518;2023-09-19T07:46:09;2.20;;;1.08;;
20725;SDS011;10524;48.132;8.518;2023-09-19T07:48:35;1.40;;;0.80;;
20725;SDS011;10524;48.132;8.518;2023-09-19T07:51:03;1.80;;;0.82;;
20725;SDS011;10524;48.132;8.518;2023-09-19T07:53:30;1.58;;;0.70;;
20725;SDS011;10524;48.132;8.518;2023-09-19T07:56:02;1.20;;;0.70;;
20725;SDS011;10524;48.132;8.518;2023-09-19T07:58:29;1.50;;;0.85;;
20725;SDS011;10524;48.132;8.518;2023-09-19T08:00:56;0.98;;;0.70;;
20725;SDS011;10524;48.132;8.518;2023-09-19T08:03:27;1.75;;;0.70;;
20725;SDS011;10524;48.132;8.518;2023-09-19T08:05:52;2.97;;;0.88;;
20725;SDS011;10524;48.132;8.518;2023-09-19T08:08:18;0.80;;;0.60;;
20725;SDS011;10524;48.132;8.518;2023-09-19T08:10:45;1.00;;;0.60;;
20725;SDS011;10524;48.132;8.518;2023-09-19T08:13:14;1.90;;;1.00;;
20725;SDS011;10524;48.132;8.518;2023-09-19T08:15:42;1.52;;;0.68;;
20725;SDS011;10524;48.132;8.518;2023-09-19T08:18:13;1.48;;;0.90;;
20725;SDS011;10524;48.132;8.518;2023-09-19T08:20:42;2.55;;;0.80;;
20725;SDS011;10524;48.132;8.518;2023-09-19T08:23:11;2.13;;;0.80;;
20725;SDS011;10524;48.132;8.518;2023-09-19T08:25:37;3.20;;;0.80;;
20725;SDS011;10524;48.132;8.518;2023-09-19T08:28:04;1.23;;;0.80;;
20725;SDS011;10524;48.132;8.518;2023-09-19T08:30:33;2.20;;;0.90;;
20725;SDS011;10524;48.132;8.518;2023-09-19T08:33:00;1.45;;;0.90;;
20725;SDS011;10524;48.132;8.518;2023-09-19T08:35:26;1.83;;;0.80;;
20725;SDS011;10524;48.132;8.518;2023-09-19T08:37:52;0.95;;;0.65;;
20725;SDS011;10524;48.132;8.518;2023-09-19T08:40:18;2.00;;;0.77;;
20725;SDS011;10524;48.132;8.518;2023-09-19T08:42:50;1.20;;;0.85;;
20725;SDS011;10524;48.132;8.518;2023-09-19T08:45:20;3.15;;;1.08;;
20725;SDS011;10524;48.132;8.518;2023-09-19T08:50:56;1.83;;;0.85;;
20725;SDS011;10524;48.132;8.518;2023-09-19T08:53:30;1.38;;;0.80;;
20725;SDS011;10524;48.132;8.518;2023-09-19T08:56:16;1.15;;;0.57;;
20725;SDS011;10524;48.132;8.518;2023-09-19T08:58:50;2.08;;;1.00;;
20725;SDS011;10524;48.132;8.518;2023-09-19T09:01:20;1.10;;;0.60;;
20725;SDS011;10524;48.132;8.518;2023-09-19T09:03:50;1.10;;;0.70;;
20725;SDS011;10524;48.132;8.518;2023-09-19T09:06:17;1.00;;;0.63;;
20725;SDS011;10524;48.132;8.518;2023-09-19T09:08:46;1.17;;;0.70;;
20725;SDS011;10524;48.132;8.518;2023-09-19T09:11:13;1.15;;;0.70;;
20725;SDS011;10524;48.132;8.518;2023-09-19T09:13:41;1.20;;;0.70;;
20725;SDS011;10524;48.132;8.518;2023-09-19T09:16:11;1.08;;;0.60;;
20725;SDS011;10524;48.132;8.518;2023-09-19T09:18:38;1.15;;;0.70;;
20725;SDS011;10524;48.132;8.518;2023-09-19T09:21:05;0.90;;;0.63;;
20725;SDS011;10524;48.132;8.518;2023-09-19T09:23:31;1.33;;;0.50;;
20725;SDS011;10524;48.132;8.518;2023-09-19T09:25:57;2.58;;;0.80;;
20725;SDS011;10524;48.132;8.518;2023-09-19T09:28:28;1.35;;;0.80;;
20725;SDS011;10524;48.132;8.518;2023-09-19T09:30:55;0.95;;;0.57;;
20725;SDS011;10524;48.132;8.518;2023-09-19T09:35:59;1.20;;;0.70;;
20725;SDS011;10524;48.132;8.518;2023-09-19T09:38:28;2.83;;;0.93;;
20725;SDS011;10524;48.132;8.518;2023-09-19T09:41:08;1.35;;;0.77;;
20725;SDS011;10524;48.132;8.518;2023-09-19T09:43:35;2.10;;;0.73;;
20725;SDS011;10524;48.132;8.518;2023-09-19T09:46:16;1.77;;;0.80;;
20725;SDS011;10524;48.132;8.518;2023-09-19T09:48:47;2.38;;;0.95;;
20725;SDS011;10524;48.132;8.518;2023-09-19T09:51:49;1.15;;;0.70;;
20725;SDS011;10524;48.132;8.518;2023-09-19T09:54:58;3.03;;;0.70;;
20725;SDS011;10524;48.132;8.518;2023-09-19T09:57:26;1.95;;;0.65;;
20725;SDS011;10524;48.132;8.518;2023-09-19T09:59:55;3.75;;;1.00;;
20725;SDS011;10524;48.132;8.518;2023-09-19T10:02:41;1.08;;;0.80;;
20725;SDS011;10524;48.132;8.518;2023-09-19T10:05:17;2.83;;;0.90;;
20725;SDS011;10524;48.132;8.518;2023-09-19T10:08:09;2.63;;;1.02;;
20725;SDS011;10524;48.132;8.518;2023-09-19T10:10:38;1.25;;;0.90;;
20725;SDS011;10524;48.132;8.518;2023-09-19T10:13:11;8.35;;;1.00;;
20725;SDS011;10524;48.132;8.518;2023-09-19T10:15:42;3.63;;;0.73;;
20725;SDS011;10524;48.132;8.518;2023-09-19T10:18:16;1.88;;;0.90;;
20725;SDS011;10524;48.132;8.518;2023-09-19T10:20:54;1.55;;;0.90;;
20725;SDS011;10524;48.132;8.518;2023-09-19T10:23:21;1.95;;;0.80;;
20725;SDS011;10524;48.132;8.518;2023-09-19T10:25:49;1.92;;;0.80;;
20725;SDS011;10524;48.132;8.518;2023-09-19T10:28:16;1.83;;;1.00;;
20725;SDS011;10524;48.132;8.518;2023-09-19T10:30:47;2.07;;;0.90;;
20725;SDS011;10524;48.132;8.518;2023-09-19T10:33:17;1.48;;;0.80;;
20725;SDS011;10524;48.132;8.518;2023-09-19T10:35:48;1.42;;;1.00;;
20725;SDS011;10524;48.132;8.518;2023-09-19T10:38:19;1.88;;;0.82;;
20725;SDS011;10524;48.132;8.518;2023-09-19T10:40:49;2.38;;;0.82;;
20725;SDS011;10524;48.132;8.518;2023-09-19T10:43:17;1.95;;;0.82;;
20725;SDS011;10524;48.132;8.518;2023-09-19T10:45:44;1.60;;;1.00;;
20725;SDS011;10524;48.132;8.518;2023-09-19T10:48:14;1.70;;;0.95;;
20725;SDS011;10524;48.132;8.518;2023-09-19T10:56:31;2.35;;;1.00;;
20725;SDS011;10524;48.132;8.518;2023-09-19T10:59:06;1.77;;;1.02;;
20725;SDS011;10524;48.132;8.518;2023-09-19T11:04:28;2.30;;;1.20;;
20725;SDS011;10524;48.132;8.518;2023-09-19T11:14:56;3.40;;;1.55;;
20725;SDS011;10524;48.132;8.518;2023-09-19T11:30:31;2.22;;;1.10;;
20725;SDS011;10524;48.132;8.518;2023-09-19T11:36:04;2.70;;;1.30;;
20725;SDS011;10524;48.132;8.518;2023-09-19T11:43:50;1.45;;;1.00;;
20725;SDS011;10524;48.132;8.518;2023-09-19T11:46:29;3.65;;;1.00;;
20725;SDS011;10524;48.132;8.518;2023-09-19T11:49:06;3.72;;;1.20;;
20725;SDS011;10524;48.132;8.518;2023-09-19T11:51:40;2.10;;;1.20;;
20725;SDS011;10524;48.132;8.518;2023-09-19T11:54:11;2.75;;;1.15;;
20725;SDS011;10524;48.132;8.518;2023-09-19T11:56:46;1.30;;;1.05;;
20725;SDS011;10524;48.132;8.518;2023-09-19T11:59:22;2.72;;;1.50;;
20725;SDS011;10524;48.132;8.518;2023-09-19T12:01:52;2.10;;;1.20;;
20725;SDS011;10524;48.132;8.518;2023-09-19T12:07:09;2.65;;;1.38;;
20725;SDS011;10524;48.132;8.518;2023-09-19T12:09:40;5.88;;;1.35;;
20725;SDS011;10524;48.132;8.518;2023-09-19T12:12:09;3.35;;;1.10;;
20725;SDS011;10524;48.132;8.518;2023-09-19T12:14:42;1.30;;;1.00;;
20725;SDS011;10524;48.132;8.518;2023-09-19T12:17:14;1.92;;;1.17;;
20725;SDS011;10524;48.132;8.518;2023-09-19T12:19:49;1.73;;;1.10;;
20725;SDS011;10524;48.132;8.518;2023-09-19T12:22:16;2.15;;;1.20;;
20725;SDS011;10524;48.132;8.518;2023-09-19T12:24:44;1.45;;;1.10;;
20725;SDS011;10524;48.132;8.518;2023-09-19T12:27:10;2.72;;;1.30;;
20725;SDS011;10524;48.132;8.518;2023-09-19T12:29:47;2.25;;;1.20;;
20725;SDS011;10524;48.132;8.518;2023-09-19T12:32:33;1.48;;;1.05;;
20725;SDS011;10524;48.132;8.518;2023-09-19T12:35:00;2.08;;;1.10;;
20725;SDS011;10524;48.132;8.518;2023-09-19T12:37:32;1.60;;;1.10;;
20725;SDS011;10524;48.132;8.518;2023-09-19T12:40:07;1.70;;;1.25;;
20725;SDS011;10524;48.132;8.518;2023-09-19T12:42:47;1.63;;;1.27;;
20725;SDS011;10524;48.132;8.518;2023-09-19T12:45:17;1.60;;;1.17;;
20725;SDS011;10524;48.132;8.518;2023-09-19T12:51:01;1.77;;;1.30;;
20725;SDS011;10524;48.132;8.518;2023-09-19T12:56:07;2.05;;;1.30;;
20725;SDS011;10524;48.132;8.518;2023-09-19T12:58:34;2.92;;;1.38;;
20725;SDS011;10524;48.132;8.518;2023-09-19T13:01:23;3.20;;;1.10;;
20725;SDS011;10524;48.132;8.518;2023-09-19T13:06:38;1.48;;;1.08;;
20725;SDS011;10524;48.132;8.518;2023-09-19T13:09:08;1.50;;;1.30;;
20725;SDS011;10524;48.132;8.518;2023-09-19T13:11:39;2.00;;;1.30;;
20725;SDS011;10524;48.132;8.518;2023-09-19T13:16:57;1.60;;;1.20;;
20725;SDS011;10524;48.132;8.518;2023-09-19T13:19:36;1.98;;;1.20;;
20725;SDS011;10524;48.132;8.518;2023-09-19T13:22:02;2.90;;;1.20;;
20725;SDS011;10524;48.132;8.518;2023-09-19T13:24:28;1.98;;;1.00;;
20725;SDS011;10524;48.132;8.518;2023-09-19T13:26:56;1.95;;;1.17;;
20725;SDS011;10524;48.132;8.518;2023-09-19T13:29:22;1.48;;;1.10;;
20725;SDS011;10524;48.132;8.518;2023-09-19T13:31:48;1.63;;;1.20;;
20725;SDS011;10524;48.132;8.518;2023-09-19T13:34:15;1.75;;;0.90;;
20725;SDS011;10524;48.132;8.518;2023-09-19T13:36:43;1.15;;;0.98;;
20725;SDS011;10524;48.132;8.518;2023-09-19T13:39:09;1.17;;;0.98;;
20725;SDS011;10524;48.132;8.518;2023-09-19T13:41:35;1.45;;;1.02;;
20725;SDS011;10524;48.132;8.518;2023-09-19T13:44:04;1.27;;;0.90;;
20725;SDS011;10524;48.132;8.518;2023-09-19T13:46:30;1.55;;;0.90;;
20725;SDS011;10524;48.132;8.518;2023-09-19T13:49:00;1.08;;;0.80;;
20725;SDS011;10524;48.132;8.518;2023-09-19T13:51:31;1.08;;;0.90;;
20725;SDS011;10524;48.132;8.518;2023-09-19T13:53:57;2.22;;;0.90;;
20725;SDS011;10524;48.132;8.518;2023-09-19T13:56:25;1.88;;;1.00;;
20725;SDS011;10524;48.132;8.518;2023-09-19T13:58:53;1.08;;;0.98;;
20725;SDS011;10524;48.132;8.518;2023-09-19T14:01:20;1.75;;;1.15;;
20725;SDS011;10524;48.132;8.518;2023-09-19T14:03:45;1.88;;;1.00;;
20725;SDS011;10524;48.132;8.518;2023-09-19T14:06:14;2.05;;;0.90;;
20725;SDS011;10524;48.132;8.518;2023-09-19T14:08:40;2.90;;;1.10;;
20725;SDS011;10524;48.132;8.518;2023-09-19T14:11:06;2.47;;;1.00;;
20725;SDS011;10524;48.132;8.518;2023-09-19T14:13:34;1.10;;;0.77;;
20725;SDS011;10524;48.132;8.518;2023-09-19T14:16:03;1.42;;;0.80;;
20725;SDS011;10524;48.132;8.518;2023-09-19T14:18:30;1.55;;;1.00;;
20725;SDS011;10524;48.132;8.518;2023-09-19T14:20:56;2.03;;;0.90;;
20725;SDS011;10524;48.132;8.518;2023-09-19T14:23:22;1.05;;;0.90;;
20725;SDS011;10524;48.132;8.518;2023-09-19T14:25:48;2.05;;;0.75;;
20725;SDS011;10524;48.132;8.518;2023-09-19T14:28:17;0.93;;;0.63;;
20725;SDS011;10524;48.132;8.518;2023-09-19T14:30:43;1.45;;;0.80;;
20725;SDS011;10524;48.132;8.518;2023-09-19T14:33:09;1.40;;;0.82;;
20725;SDS011;10524;48.132;8.518;2023-09-19T14:35:36;1.20;;;0.80;;
20725;SDS011;10524;48.132;8.518;2023-09-19T14:38:03;1.40;;;0.70;;
20725;SDS011;10524;48.132;8.518;2023-09-19T14:40:29;1.45;;;0.80;;
20725;SDS011;10524;48.132;8.518;2023-09-19T14:42:57;3.00;;;0.98;;
20725;SDS011;10524;48.132;8.518;2023-09-19T14:45:23;2.15;;;0.90;;
20725;SDS011;10524;48.132;8.518;2023-09-19T14:47:50;1.20;;;0.70;;
20725;SDS011;10524;48.132;8.518;2023-09-19T14:50:21;1.33;;;0.80;;
20725;SDS011;10524;48.132;8.518;2023-09-19T14:52:47;2.45;;;0.80;;
20725;SDS011;10524;48.132;8.518;2023-09-19T14:55:15;0.82;;;0.70;;
20725;SDS011;10524;48.132;8.518;2023-09-19T14:57:41;1.33;;;0.70;;
20725;SDS011;10524;48.132;8.518;2023-09-19T15:00:10;1.88;;;0.90;;
20725;SDS011;10524;48.132;8.518;2023-09-19T15:02:39;1.35;;;0.77;;
20725;SDS011;10524;48.132;8.518;2023-09-19T15:05:06;1.63;;;0.85;;
20725;SDS011;10524;48.132;8.518;2023-09-19T15:07:34;2.88;;;0.80;;
20725;SDS011;10524;48.132;8.518;2023-09-19T15:10:04;0.73;;;0.60;;
20725;SDS011;10524;48.132;8.518;2023-09-19T15:12:32;1.20;;;0.73;;
20725;SDS011;10524;48.132;8.518;2023-09-19T15:14:58;2.50;;;0.82;;
20725;SDS011;10524;48.132;8.518;2023-09-19T15:17:24;0.70;;;0.70;;
20725;SDS011;10524;48.132;8.518;2023-09-19T15:19:50;1.42;;;0.75;;
20725;SDS011;10524;48.132;8.518;2023-09-19T15:22:16;1.33;;;0.80;;
20725;SDS011;10524;48.132;8.518;2023-09-19T15:24:42;1.48;;;0.90;;
20725;SDS011;10524;48.132;8.518;2023-09-19T15:27:08;1.23;;;0.90;;
20725;SDS011;10524;48.132;8.518;2023-09-19T15:29:33;1.02;;;0.77;;
20725;SDS011;10524;48.132;8.518;2023-09-19T15:31:59;2.55;;;0.75;;
20725;SDS011;10524;48.132;8.518;2023-09-19T15:34:28;1.83;;;0.85;;
20725;SDS011;10524;48.132;8.518;2023-09-19T15:36:55;1.83;;;0.88;;
20725;SDS011;10524;48.132;8.518;2023-09-19T15:39:20;1.27;;;0.77;;
20725;SDS011;10524;48.132;8.518;2023-09-19T15:41:47;1.30;;;0.80;;
20725;SDS011;10524;48.132;8.518;2023-09-19T15:44:18;1.73;;;0.70;;
20725;SDS011;10524;48.132;8.518;2023-09-19T15:46:44;2.13;;;0.82;;
20725;SDS011;10524;48.132;8.518;2023-09-19T15:49:10;1.67;;;0.80;;
20725;SDS011;10524;48.132;8.518;2023-09-19T15:51:37;4.25;;;0.70;;
20725;SDS011;10524;48.132;8.518;2023-09-19T15:54:07;2.65;;;0.80;;
20725;SDS011;10524;48.132;8.518;2023-09-19T15:56:34;1.33;;;0.70;;
20725;SDS011;10524;48.132;8.518;2023-09-19T15:59:00;1.95;;;0.88;;
20725;SDS011;10524;48.132;8.518;2023-09-19T16:01:26;1.23;;;0.70;;
20725;SDS011;10524;48.132;8.518;2023-09-19T16:03:52;1.27;;;0.80;;
20725;SDS011;10524;48.132;8.518;2023-09-19T16:06:21;1.23;;;0.80;;
20725;SDS011;10524;48.132;8.518;2023-09-19T16:08:49;0.95;;;0.63;;
20725;SDS011;10524;48.132;8.518;2023-09-19T16:11:16;1.77;;;0.90;;
20725;SDS011;10524;48.132;8.518;2023-09-19T16:13:44;1.38;;;0.70;;
20725;SDS011;10524;48.132;8.518;2023-09-19T16:16:12;1.45;;;0.80;;